Terminal Aerodrome Forecast
Issued by NWS

Home | Current Version | Previous Version | Text Only | Print | Product List | Glossary On
Versions: 1 2 3 4 5 6 7 8 9 10 11 12 13 14 15
000
FTUS42 KTAE 260520
TAFECP
TAF
KECP 260520Z 2606/2706 10006KT P6SM FEW025 SCT035
      TEMPO 2610/2613 TS BKN025CB
     FM261300 17012KT 6SM -TSRA BKN040CB
     FM262000 20013KT P6SM VCTS SCT050CB BKN250
     FM270000 20007KT P6SM FEW050 SCT250=

USA.gov is the U.S. government's official web portal to all federal, state and local government web resources and services.